CW1768 Weather Reports


Display with metric or nautical units.
time (UTC)temp
F
wind
direction
speed
MPH
gust
MPH
rain 1hr
in
rain 24hr
in
rain mn
in
humidity
%
barometer
mb
20240614065039 69 180 3.0 5.0 0.00 0.01 0.00 61 1010.3
20240614064019 69 180 3.0 5.0 0.00 0.01 0.00 61 1010.3
20240614063019 70 180 3.0 6.0 0.00 0.01 0.00 60 1010.3
20240614062019 70 180 5.0 8.0 0.00 0.01 0.00 58 1010.5
20240614061019 70 180 5.0 7.0 0.00 0.01 0.00 59 1010.8
20240614060019 70 180 5.0 9.0 0.00 0.01 0.00 58 1011.0
20240614055019 69 203 2.0 4.0 0.00 0.01 0.00 60 1011.4
20240614054019 69 203 2.0 4.0 0.00 0.01 0.00 60 1011.2
20240614053019 69 203 3.0 5.0 0.00 0.01 0.00 61 1011.1
20240614052018 68 203 4.0 5.0 0.00 0.01 0.00 62 1011.3
20240614051019 68 203 3.0 5.0 0.00 0.01 0.00 62 1011.4
20240614050039 68 203 3.0 4.0 0.00 0.01 0.00 63 1011.4
20240614045019 68 203 1.0 3.0 0.00 0.01 0.00 63 1011.7
20240614044019 68 0.0 0.0 0.00 0.01 0.00 63 1011.7
20240614043039 68 0.0 2.0 0.00 0.01 0.00 63 1012.0
20240614042039 68 0.0 2.0 0.00 0.01 0.00 63 1011.9
20240614041020 68 0.0 2.0 0.00 0.01 0.00 63 1012.2
20240614040019 67 0.0 2.0 0.00 0.01 0.01 79 1012.2
20240614035038 67 203 1.0 3.0 0.00 0.01 0.01 79 1012.4
20240614034019 67 203 2.0 4.0 0.00 0.01 0.01 79 1012.4
20240614033018 67 203 2.0 3.0 0.00 0.01 0.01 79 1012.4
20240614032039 67 203 2.0 3.0 0.00 0.01 0.01 79 1012.5
20240614031018 67 203 2.0 4.0 0.00 0.01 0.01 79 1012.6
20240614030019 67 203 2.0 3.0 0.00 0.01 0.01 79 1012.6
20240614025019 67 203 1.0 3.0 0.00 0.01 0.01 79 1012.6
20240614024018 67 158 1.0 4.0 0.00 0.01 0.01 79 1012.6
20240614023018 67 158 1.0 4.0 0.00 0.01 0.01 79 1012.2
20240614022018 67 0.0 3.0 0.00 0.01 0.01 79 1012.2
20240614021020 67 158 1.0 4.0 0.00 0.03 0.01 78 1012.3
20240614020019 68 0.0 1.0 0.00 0.03 0.01 77 1012.4
20240614015018 68 158 3.0 4.0 0.00 0.03 0.01 76 1012.6
20240614014018 68 158 2.0 4.0 0.00 0.03 0.01 77 1012.8
20240614013019 68 158 2.0 3.0 0.00 0.03 0.01 76 1012.7
20240614012019 68 158 1.0 2.0 0.00 0.03 0.01 75 1012.7
20240614011038 68 158 1.0 2.0 0.00 0.03 0.01 75 1012.7
20240614010018 69 0.0 0.0 0.00 0.03 0.01 76 1012.6
20240614005020 70 0.0 0.0 0.00 0.03 0.01 74 1012.6
20240614004020 70 0.0 0.0 0.00 0.03 0.01 72 1012.6
20240614003019 71 0.0 0.0 0.00 0.03 0.01 71 1012.8
20240614002018 71 0.0 0.0 0.00 0.03 0.01 70 1012.7
20240614001018 72 135 1.0 2.0 0.00 0.03 0.01 68 1012.7
20240614000020 73 135 1.0 3.0 0.00 0.03 0.01 67 1012.7
20240613235020 73 135 1.0 3.0 0.00 0.03 0.01 66 1012.7
20240613234018 73 0.0 0.0 0.00 0.03 0.01 66 1012.9
20240613233018 74 135 1.0 3.0 0.00 0.03 0.01 68 1012.9
20240613232038 75 135 2.0 4.0 0.00 0.03 0.01 69 1012.7
20240613231019 75 135 3.0 5.0 0.00 0.03 0.01 67 1012.7
20240613230020 76 135 2.0 4.0 0.00 0.03 0.01 63 1012.4
20240613225020 77 158 4.0 7.0 0.00 0.03 0.01 61 1012.6
20240613224039 78 180 2.0 5.0 0.00 0.03 0.01 54 1012.6
20240613223019 79 180 2.0 4.0 0.00 0.03 0.01 52 1012.7
20240613222020 79 180 1.0 4.0 0.00 0.03 0.01 53 1012.8
20240613221018 80 0.0 1.0 0.00 0.03 0.01 52 1012.8
20240613220019 80 180 1.0 5.0 0.00 0.03 0.01 52 1012.7
20240613215040 80 158 2.0 4.0 0.00 0.03 0.01 50 1012.6
20240613214020 81 180 2.0 5.0 0.00 0.03 0.01 49 1012.5
20240613213020 81 180 1.0 3.0 0.00 0.03 0.01 51 1012.7
20240613212020 81 180 2.0 4.0 0.00 0.03 0.01 51 1012.9
20240613211020 80 203 2.0 5.0 0.00 0.03 0.01 50 1012.9
20240613210020 80 203 2.0 4.0 0.00 0.03 0.01 48 1013.1
20240613205020 80 203 2.0 4.0 0.00 0.03 0.01 46 1013.2
20240613204020 80 203 3.0 5.0 0.00 0.03 0.01 46 1013.1
20240613203019 81 180 2.0 4.0 0.00 0.04 0.01 46 1013.0
20240613202020 81 180 2.0 4.0 0.00 0.08 0.01 45 1013.0
20240613201020 81 203 3.0 5.0 0.00 0.16 0.01 46 1013.1
20240613200100 80 180 2.0 6.0 0.00 0.16 0.01 46 1013.2
20240613195019 80 180 1.0 4.0 0.00 0.16 0.01 45 1013.3
20240613194020 80 180 1.0 3.0 0.00 0.16 0.01 45 1013.5
20240613193040 81 180 1.0 3.0 0.00 0.16 0.01 45 1013.6
20240613192021 81 203 1.0 5.0 0.00 0.16 0.01 44 1013.6
20240613191040 81 225 1.0 3.0 0.00 0.16 0.01 41 1013.7
20240613190100 80 0.0 3.0 0.00 0.16 0.01 39 1014.1
20240613185020 80 203 1.0 3.0 0.00 0.16 0.01 37 1014.1
20240613184040 79 203 1.0 3.0 0.00 0.16 0.01 42 1014.2
20240613183020 79 135 1.0 3.0 0.00 0.16 0.01 45 1014.1
20240613182020 78 203 1.0 8.0 0.00 0.16 0.01 49 1014.1
20240613181020 78 248 1.0 4.0 0.00 0.16 0.01 48 1014.1
20240613180040 78 0.0 3.0 0.00 0.16 0.01 46 1014.2
20240613175041 77 0.0 3.0 0.00 0.16 0.01 47 1014.3
20240613174020 77 45 1.0 7.0 0.00 0.17 0.01 46 1014.5
20240613173020 77 0.0 8.0 0.00 0.17 0.01 45 1014.4
20240613172019 77 0.0 8.0 0.00 0.17 0.01 49 1014.5
20240613171020 76 203 1.0 3.0 0.00 0.17 0.01 49 1014.6
20240613170042 76 0.0 3.0 0.00 0.17 0.01 53 1014.9
20240613165059 76 158 1.0 4.0 0.00 0.17 0.01 50 1015.1
20240613164041 75 248 1.0 3.0 0.00 0.17 0.01 51 1015.0
20240613163020 75 248 1.0 4.0 0.00 0.17 0.01 54 1015.3
20240613162020 74 0.0 3.0 0.00 0.17 0.01 54 1015.2
20240613161020 74 225 1.0 6.0 0.00 0.17 0.01 53 1015.1
20240613160039 74 225 1.0 4.0 0.00 0.17 0.01 52 1015.5
20240613155019 74 225 1.0 4.0 0.00 0.17 0.01 51 1015.5
20240613154020 74 0.0 3.0 0.00 0.17 0.01 54 1015.5
20240613153019 73 45 1.0 4.0 0.00 0.17 0.01 56 1015.4
20240613152019 72 0.0 4.0 0.00 0.17 0.01 61 1015.3
20240613151020 72 203 1.0 4.0 0.00 0.17 0.01 60 1015.6
20240613150020 72 225 1.0 4.0 0.00 0.17 0.01 59 1015.6
20240613145019 71 225 2.0 4.0 0.00 0.17 0.01 59 1015.6
20240613144039 71 0.0 2.0 0.00 0.17 0.01 58 1015.4
20240613143039 71 225 1.0 4.0 0.00 0.17 0.01 58 1015.6
20240613142019 71 225 1.0 3.0 0.00 0.17 0.01 65 1015.6
20240613141019 70 0.0 3.0 0.00 0.17 0.01 69 1015.5
20240613140019 69 203 1.0 3.0 0.00 0.17 0.01 70 1015.5
20240613135040 69 203 1.0 3.0 0.00 0.17 0.01 72 1015.6
20240613134040 69 203 1.0 3.0 0.00 0.17 0.01 75 1015.6
20240613133019 68 0.0 2.0 0.00 0.17 0.01 76 1015.7
20240613132019 68 0.0 2.0 0.00 0.17 0.01 78 1015.6
20240613131019 68 0.0 2.0 0.00 0.17 0.01 79 1015.5
20240613130028 68 0.0 2.0 0.00 0.17 0.01 82 1015.5
20240613125020 67 0.0 2.0 0.00 0.17 0.01 83 1015.4
20240613124019 66 0.0 1.0 0.00 0.17 0.01 83 1015.5
20240613123059 65 0.0 2.0 0.00 0.17 0.01 78 1015.6
20240613122019 64 0.0 1.0 0.00 0.17 0.01 75 1015.5
20240613121040 62 0.0 3.0 0.00 0.17 0.01 75 1015.5
20240613120020 62 0.0 0.0 0.00 0.17 0.01 75 1015.4
20240613115019 61 0.0 2.0 0.00 0.17 0.01 75 1015.1
20240613114019 60 0.0 2.0 0.00 0.17 0.01 76 1015.1
20240613113019 60 0.0 0.0 0.00 0.17 0.01 75 1015.3
20240613112019 59 0.0 0.0 0.00 0.17 0.01 76 1015.3
20240613111039 59 0.0 0.0 0.00 0.17 0.01 76 1015.5
20240613110019 59 0.0 0.0 0.00 0.17 0.01 76 1015.4
20240613105019 59 0.0 0.0 0.00 0.17 0.01 76 1015.3
20240613104019 58 0.0 0.0 0.00 0.17 0.01 76 1015.1
20240613103019 58 0.0 0.0 0.00 0.17 0.01 76 1015.2
20240613102039 57 0.0 0.0 0.00 0.17 0.01 77 1015.1
20240613101019 56 0.0 0.0 0.00 0.17 0.01 77 1014.8
20240613100019 56 0.0 0.0 0.00 0.17 0.01 77 1014.8
20240613095019 56 0.0 0.0 0.00 0.17 0.01 77 1014.7
20240613094019 56 0.0 0.0 0.00 0.17 0.01 77 1014.7
20240613093019 56 0.0 0.0 0.00 0.17 0.01 77 1014.8
20240613092019 55 0.0 0.0 0.00 0.17 0.01 77 1014.6
20240613091019 55 0.0 0.0 0.00 0.17 0.01 77 1014.6
20240613090019 55 0.0 0.0 0.00 0.17 0.01 77 1014.3
20240613085039 56 0.0 0.0 0.01 0.17 0.01 77 1014.3
20240613084031 56 0.0 0.0 0.01 0.17 0.01 77 1014.2
20240613083039 56 0.0 0.0 0.01 0.17 0.01 77 1014.2
20240613082059 56 0.0 0.0 0.01 0.17 0.01 77 1014.3
20240613081039 56 0.0 0.0 0.01 0.17 0.01 77 1014.3
20240613080039 56 0.0 0.0 0.01 0.17 0.01 77 1014.3
20240613075019 57 0.0 0.0 0.00 0.16 0.00 77 1014.4
20240613074019 57 0.0 0.0 0.00 0.16 0.00 77 1014.3
20240613073019 57 0.0 0.0 0.00 0.16 0.00 77 1014.1
20240613072019 57 0.0 0.0 0.00 0.16 0.00 77 1014.2
20240613071059 57 0.0 0.0 0.00 0.16 0.00 77 1014.3
20240613070039 57 0.0 0.0 0.00 0.16 0.00 77 1014.1